sensor_id;sensor_type;location;lat;lon;timestamp;temperature;humidity
11221;DHT22;8517;53.546;10.104;2023-06-04T00:01:41;15.60;99.90
11221;DHT22;8517;53.546;10.104;2023-06-04T00:04:10;15.60;99.90
11221;DHT22;8517;53.546;10.104;2023-06-04T00:06:37;15.60;99.90
11221;DHT22;8517;53.546;10.104;2023-06-04T00:09:03;15.50;99.90
11221;DHT22;8517;53.546;10.104;2023-06-04T00:11:30;15.40;99.90
11221;DHT22;8517;53.546;10.104;2023-06-04T00:14:00;15.40;99.90
11221;DHT22;8517;53.546;10.104;2023-06-04T00:16:27;15.40;99.90
11221;DHT22;8517;53.546;10.104;2023-06-04T00:18:54;15.30;99.90
11221;DHT22;8517;53.546;10.104;2023-06-04T00:21:21;15.20;99.90
11221;DHT22;8517;53.546;10.104;2023-06-04T00:23:48;15.20;99.90
11221;DHT22;8517;53.546;10.104;2023-06-04T00:26:15;15.20;99.90
11221;DHT22;8517;53.546;10.104;2023-06-04T00:28:41;15.20;99.90
11221;DHT22;8517;53.546;10.104;2023-06-04T00:31:10;15.10;99.90
11221;DHT22;8517;53.546;10.104;2023-06-04T00:33:38;15.10;99.90
11221;DHT22;8517;53.546;10.104;2023-06-04T00:36:05;15.10;99.90
11221;DHT22;8517;53.546;10.104;2023-06-04T00:38:32;15.10;99.90
11221;DHT22;8517;53.546;10.104;2023-06-04T00:40:59;15.00;99.90
11221;DHT22;8517;53.546;10.104;2023-06-04T00:43:25;15.00;99.90
11221;DHT22;8517;53.546;10.104;2023-06-04T00:45:53;15.00;99.90
11221;DHT22;8517;53.546;10.104;2023-06-04T00:48:21;15.00;99.90
11221;DHT22;8517;53.546;10.104;2023-06-04T00:50:48;15.00;99.90
11221;DHT22;8517;53.546;10.104;2023-06-04T00:53:15;14.90;99.90
11221;DHT22;8517;53.546;10.104;2023-06-04T00:55:42;14.90;99.90
11221;DHT22;8517;53.546;10.104;2023-06-04T00:58:09;14.90;99.90
11221;DHT22;8517;53.546;10.104;2023-06-04T01:00:36;14.90;99.90
11221;DHT22;8517;53.546;10.104;2023-06-04T01:03:08;14.90;99.90
11221;DHT22;8517;53.546;10.104;2023-06-04T01:05:42;14.80;99.90
11221;DHT22;8517;53.546;10.104;2023-06-04T01:08:11;14.80;99.90
11221;DHT22;8517;53.546;10.104;2023-06-04T01:10:37;14.80;99.90
11221;DHT22;8517;53.546;10.104;2023-06-04T01:13:04;14.80;99.90
11221;DHT22;8517;53.546;10.104;2023-06-04T01:15:32;14.70;99.90
11221;DHT22;8517;53.546;10.104;2023-06-04T01:18:00;14.70;99.90
11221;DHT22;8517;53.546;10.104;2023-06-04T01:20:35;14.70;99.90
11221;DHT22;8517;53.546;10.104;2023-06-04T01:23:15;14.70;99.90
11221;DHT22;8517;53.546;10.104;2023-06-04T01:25:45;14.60;99.90
11221;DHT22;8517;53.546;10.104;2023-06-04T01:28:15;14.60;99.90
11221;DHT22;8517;53.546;10.104;2023-06-04T01:30:44;14.60;99.90
11221;DHT22;8517;53.546;10.104;2023-06-04T01:33:12;14.50;99.90
11221;DHT22;8517;53.546;10.104;2023-06-04T01:35:39;14.50;99.90
11221;DHT22;8517;53.546;10.104;2023-06-04T01:38:08;14.50;99.90
11221;DHT22;8517;53.546;10.104;2023-06-04T01:40:35;14.40;99.90
11221;DHT22;8517;53.546;10.104;2023-06-04T01:43:02;14.40;99.90
11221;DHT22;8517;53.546;10.104;2023-06-04T01:45:29;14.40;99.90
11221;DHT22;8517;53.546;10.104;2023-06-04T01:47:57;14.40;99.90
11221;DHT22;8517;53.546;10.104;2023-06-04T01:50:24;14.40;99.90
11221;DHT22;8517;53.546;10.104;2023-06-04T01:52:51;14.40;99.90
11221;DHT22;8517;53.546;10.104;2023-06-04T01:55:20;14.30;99.90
11221;DHT22;8517;53.546;10.104;2023-06-04T01:57:47;14.30;99.90
11221;DHT22;8517;53.546;10.104;2023-06-04T02:00:14;14.30;99.90
11221;DHT22;8517;53.546;10.104;2023-06-04T02:02:42;14.30;99.90
11221;DHT22;8517;53.546;10.104;2023-06-04T02:05:10;14.20;99.90
11221;DHT22;8517;53.546;10.104;2023-06-04T02:07:38;14.20;99.90
11221;DHT22;8517;53.546;10.104;2023-06-04T02:10:06;14.20;99.90
11221;DHT22;8517;53.546;10.104;2023-06-04T02:12:36;14.10;99.90
11221;DHT22;8517;53.546;10.104;2023-06-04T02:15:04;14.10;99.90
11221;DHT22;8517;53.546;10.104;2023-06-04T02:17:31;14.10;99.90
11221;DHT22;8517;53.546;10.104;2023-06-04T02:19:59;14.00;99.90
11221;DHT22;8517;53.546;10.104;2023-06-04T02:22:26;14.00;99.90
11221;DHT22;8517;53.546;10.104;2023-06-04T02:24:52;14.00;99.90
11221;DHT22;8517;53.546;10.104;2023-06-04T02:27:19;13.90;99.90
11221;DHT22;8517;53.546;10.104;2023-06-04T02:29:47;13.90;99.90
11221;DHT22;8517;53.546;10.104;2023-06-04T02:32:15;13.80;99.90
11221;DHT22;8517;53.546;10.104;2023-06-04T02:34:41;13.80;99.90
11221;DHT22;8517;53.546;10.104;2023-06-04T02:37:08;13.80;99.90
11221;DHT22;8517;53.546;10.104;2023-06-04T02:39:35;13.80;99.90
11221;DHT22;8517;53.546;10.104;2023-06-04T02:42:02;13.80;99.90
11221;DHT22;8517;53.546;10.104;2023-06-04T02:44:29;13.70;99.90
11221;DHT22;8517;53.546;10.104;2023-06-04T02:46:57;13.70;99.90
11221;DHT22;8517;53.546;10.104;2023-06-04T02:49:24;13.70;99.90
11221;DHT22;8517;53.546;10.104;2023-06-04T02:51:51;13.60;99.90
11221;DHT22;8517;53.546;10.104;2023-06-04T02:54:18;13.60;99.90
11221;DHT22;8517;53.546;10.104;2023-06-04T02:56:44;13.60;99.90
11221;DHT22;8517;53.546;10.104;2023-06-04T02:59:11;13.60;99.90
11221;DHT22;8517;53.546;10.104;2023-06-04T03:01:39;13.60;99.90
11221;DHT22;8517;53.546;10.104;2023-06-04T03:04:07;13.60;99.90
11221;DHT22;8517;53.546;10.104;2023-06-04T03:06:36;13.60;99.90
11221;DHT22;8517;53.546;10.104;2023-06-04T03:09:04;13.60;99.90
11221;DHT22;8517;53.546;10.104;2023-06-04T03:11:32;13.60;99.90
11221;DHT22;8517;53.546;10.104;2023-06-04T03:13:59;13.60;99.90
11221;DHT22;8517;53.546;10.104;2023-06-04T03:16:26;13.60;99.90
11221;DHT22;8517;53.546;10.104;2023-06-04T03:18:52;13.60;99.90
11221;DHT22;8517;53.546;10.104;2023-06-04T03:21:21;13.60;99.90
11221;DHT22;8517;53.546;10.104;2023-06-04T03:23:47;13.60;99.90
11221;DHT22;8517;53.546;10.104;2023-06-04T03:26:14;13.60;99.90
11221;DHT22;8517;53.546;10.104;2023-06-04T03:28:41;13.60;99.90
11221;DHT22;8517;53.546;10.104;2023-06-04T03:31:08;13.60;99.90
11221;DHT22;8517;53.546;10.104;2023-06-04T03:33:35;13.60;99.90
11221;DHT22;8517;53.546;10.104;2023-06-04T03:36:02;13.60;99.90
11221;DHT22;8517;53.546;10.104;2023-06-04T03:38:30;13.60;99.90
11221;DHT22;8517;53.546;10.104;2023-06-04T03:40:57;13.60;99.90
11221;DHT22;8517;53.546;10.104;2023-06-04T03:43:24;13.60;99.90
11221;DHT22;8517;53.546;10.104;2023-06-04T03:45:50;13.60;99.90
11221;DHT22;8517;53.546;10.104;2023-06-04T03:48:17;13.60;99.90
11221;DHT22;8517;53.546;10.104;2023-06-04T03:50:44;13.60;99.90
11221;DHT22;8517;53.546;10.104;2023-06-04T03:53:11;13.60;99.90
11221;DHT22;8517;53.546;10.104;2023-06-04T03:55:39;13.60;99.90
11221;DHT22;8517;53.546;10.104;2023-06-04T03:58:06;13.60;99.90
11221;DHT22;8517;53.546;10.104;2023-06-04T04:00:34;13.70;99.90
11221;DHT22;8517;53.546;10.104;2023-06-04T04:03:01;13.70;99.90
11221;DHT22;8517;53.546;10.104;2023-06-04T04:05:28;13.70;99.90
11221;DHT22;8517;53.546;10.104;2023-06-04T04:07:55;13.70;99.90
11221;DHT22;8517;53.546;10.104;2023-06-04T04:10:22;13.80;99.90
11221;DHT22;8517;53.546;10.104;2023-06-04T04:12:50;13.80;99.90
11221;DHT22;8517;53.546;10.104;2023-06-04T04:15:20;13.90;99.90
11221;DHT22;8517;53.546;10.104;2023-06-04T04:17:47;13.90;99.90
11221;DHT22;8517;53.546;10.104;2023-06-04T04:20:13;14.00;99.90
11221;DHT22;8517;53.546;10.104;2023-06-04T04:22:42;14.10;99.90
11221;DHT22;8517;53.546;10.104;2023-06-04T04:25:09;14.10;99.90
11221;DHT22;8517;53.546;10.104;2023-06-04T04:27:36;14.20;99.90
11221;DHT22;8517;53.546;10.104;2023-06-04T04:30:08;14.30;99.90
11221;DHT22;8517;53.546;10.104;2023-06-04T04:32:35;14.30;99.90
11221;DHT22;8517;53.546;10.104;2023-06-04T04:35:04;14.40;99.90
11221;DHT22;8517;53.546;10.104;2023-06-04T04:37:33;14.50;99.90
11221;DHT22;8517;53.546;10.104;2023-06-04T04:40:06;14.60;99.90
11221;DHT22;8517;53.546;10.104;2023-06-04T04:42:35;14.70;99.90
11221;DHT22;8517;53.546;10.104;2023-06-04T04:45:01;14.70;99.90
11221;DHT22;8517;53.546;10.104;2023-06-04T04:47:30;14.80;99.90
11221;DHT22;8517;53.546;10.104;2023-06-04T04:49:56;14.90;99.90
11221;DHT22;8517;53.546;10.104;2023-06-04T04:52:24;14.90;99.90
11221;DHT22;8517;53.546;10.104;2023-06-04T04:54:51;15.00;99.90
11221;DHT22;8517;53.546;10.104;2023-06-04T04:57:21;15.10;99.90
11221;DHT22;8517;53.546;10.104;2023-06-04T04:59:48;15.10;99.90
11221;DHT22;8517;53.546;10.104;2023-06-04T05:02:14;15.20;99.90
11221;DHT22;8517;53.546;10.104;2023-06-04T05:04:43;15.30;99.90
11221;DHT22;8517;53.546;10.104;2023-06-04T05:07:09;15.30;99.90
11221;DHT22;8517;53.546;10.104;2023-06-04T05:09:36;15.40;99.90
11221;DHT22;8517;53.546;10.104;2023-06-04T05:12:03;15.40;99.90
11221;DHT22;8517;53.546;10.104;2023-06-04T05:14:30;15.50;99.90
11221;DHT22;8517;53.546;10.104;2023-06-04T05:16:58;15.50;99.90
11221;DHT22;8517;53.546;10.104;2023-06-04T05:19:24;15.60;99.90
11221;DHT22;8517;53.546;10.104;2023-06-04T05:21:52;15.60;99.90
11221;DHT22;8517;53.546;10.104;2023-06-04T05:24:19;15.70;99.90
11221;DHT22;8517;53.546;10.104;2023-06-04T05:26:46;15.70;99.90
11221;DHT22;8517;53.546;10.104;2023-06-04T05:29:13;15.80;99.90
11221;DHT22;8517;53.546;10.104;2023-06-04T05:31:40;15.90;99.90
11221;DHT22;8517;53.546;10.104;2023-06-04T05:34:07;16.00;99.90
11221;DHT22;8517;53.546;10.104;2023-06-04T05:36:35;16.10;99.90
11221;DHT22;8517;53.546;10.104;2023-06-04T05:39:03;16.20;99.90
11221;DHT22;8517;53.546;10.104;2023-06-04T05:41:29;16.30;99.90
11221;DHT22;8517;53.546;10.104;2023-06-04T05:43:56;16.30;99.90
11221;DHT22;8517;53.546;10.104;2023-06-04T05:46:23;16.30;99.90
11221;DHT22;8517;53.546;10.104;2023-06-04T05:48:50;16.40;99.90
11221;DHT22;8517;53.546;10.104;2023-06-04T05:51:17;16.50;99.90
11221;DHT22;8517;53.546;10.104;2023-06-04T05:53:44;16.50;99.90
11221;DHT22;8517;53.546;10.104;2023-06-04T05:56:12;16.60;99.90
11221;DHT22;8517;53.546;10.104;2023-06-04T05:58:39;16.60;99.90
11221;DHT22;8517;53.546;10.104;2023-06-04T06:01:06;16.70;99.90
11221;DHT22;8517;53.546;10.104;2023-06-04T06:03:33;16.80;99.90
11221;DHT22;8517;53.546;10.104;2023-06-04T06:06:00;16.90;99.90
11221;DHT22;8517;53.546;10.104;2023-06-04T06:08:27;17.00;99.90
11221;DHT22;8517;53.546;10.104;2023-06-04T06:10:53;17.10;99.90
11221;DHT22;8517;53.546;10.104;2023-06-04T06:13:22;17.30;99.90
11221;DHT22;8517;53.546;10.104;2023-06-04T06:15:49;17.50;99.90
11221;DHT22;8517;53.546;10.104;2023-06-04T06:18:16;17.70;99.90
11221;DHT22;8517;53.546;10.104;2023-06-04T06:20:42;18.00;99.90
11221;DHT22;8517;53.546;10.104;2023-06-04T06:23:09;18.40;99.90
11221;DHT22;8517;53.546;10.104;2023-06-04T06:25:36;18.70;99.90
11221;DHT22;8517;53.546;10.104;2023-06-04T06:28:05;19.10;99.90
11221;DHT22;8517;53.546;10.104;2023-06-04T06:30:33;19.40;99.90
11221;DHT22;8517;53.546;10.104;2023-06-04T06:33:00;19.80;99.90
11221;DHT22;8517;53.546;10.104;2023-06-04T06:35:27;20.20;99.90
11221;DHT22;8517;53.546;10.104;2023-06-04T06:37:54;20.50;99.90
11221;DHT22;8517;53.546;10.104;2023-06-04T06:40:21;20.90;99.90
11221;DHT22;8517;53.546;10.104;2023-06-04T06:42:48;21.20;99.90
11221;DHT22;8517;53.546;10.104;2023-06-04T06:45:16;21.50;99.90
11221;DHT22;8517;53.546;10.104;2023-06-04T06:47:44;21.90;99.90
11221;DHT22;8517;53.546;10.104;2023-06-04T06:50:11;22.20;99.90
11221;DHT22;8517;53.546;10.104;2023-06-04T06:52:38;22.40;99.90
11221;DHT22;8517;53.546;10.104;2023-06-04T06:55:06;22.60;99.90
11221;DHT22;8517;53.546;10.104;2023-06-04T06:57:33;22.80;99.90
11221;DHT22;8517;53.546;10.104;2023-06-04T07:00:00;23.00;99.90
11221;DHT22;8517;53.546;10.104;2023-06-04T07:02:27;23.10;99.90
11221;DHT22;8517;53.546;10.104;2023-06-04T07:04:55;23.30;99.90
11221;DHT22;8517;53.546;10.104;2023-06-04T07:07:22;23.40;99.90
11221;DHT22;8517;53.546;10.104;2023-06-04T07:09:49;23.50;99.90
11221;DHT22;8517;53.546;10.104;2023-06-04T07:12:16;23.60;99.90
11221;DHT22;8517;53.546;10.104;2023-06-04T07:14:43;23.90;99.90
11221;DHT22;8517;53.546;10.104;2023-06-04T07:17:10;24.00;99.90
11221;DHT22;8517;53.546;10.104;2023-06-04T07:19:37;24.30;99.90
11221;DHT22;8517;53.546;10.104;2023-06-04T07:22:05;24.50;99.90
11221;DHT22;8517;53.546;10.104;2023-06-04T07:24:32;24.70;99.90
11221;DHT22;8517;53.546;10.104;2023-06-04T07:26:59;24.90;99.90
11221;DHT22;8517;53.546;10.104;2023-06-04T07:29:25;25.10;99.90
11221;DHT22;8517;53.546;10.104;2023-06-04T07:31:52;25.20;99.90
11221;DHT22;8517;53.546;10.104;2023-06-04T07:34:19;25.20;99.90
11221;DHT22;8517;53.546;10.104;2023-06-04T07:36:46;25.20;99.90
11221;DHT22;8517;53.546;10.104;2023-06-04T07:39:14;25.30;99.90
11221;DHT22;8517;53.546;10.104;2023-06-04T07:41:41;25.30;99.90
11221;DHT22;8517;53.546;10.104;2023-06-04T07:44:08;25.40;99.90
11221;DHT22;8517;53.546;10.104;2023-06-04T07:46:35;25.50;99.90
11221;DHT22;8517;53.546;10.104;2023-06-04T07:49:02;25.40;99.90
11221;DHT22;8517;53.546;10.104;2023-06-04T07:51:28;25.40;99.90
11221;DHT22;8517;53.546;10.104;2023-06-04T07:53:55;25.40;99.90
11221;DHT22;8517;53.546;10.104;2023-06-04T07:56:23;25.30;99.90
11221;DHT22;8517;53.546;10.104;2023-06-04T07:58:51;25.30;99.90
11221;DHT22;8517;53.546;10.104;2023-06-04T08:01:21;25.20;99.90
11221;DHT22;8517;53.546;10.104;2023-06-04T08:03:49;25.10;99.90
11221;DHT22;8517;53.546;10.104;2023-06-04T08:06:16;25.00;99.90
11221;DHT22;8517;53.546;10.104;2023-06-04T08:08:43;24.90;99.80
11221;DHT22;8517;53.546;10.104;2023-06-04T08:11:11;24.80;99.90
11221;DHT22;8517;53.546;10.104;2023-06-04T08:13:39;24.80;99.40
11221;DHT22;8517;53.546;10.104;2023-06-04T08:16:06;24.70;98.30
11221;DHT22;8517;53.546;10.104;2023-06-04T08:18:37;24.60;99.40
11221;DHT22;8517;53.546;10.104;2023-06-04T08:21:04;24.60;99.00
11221;DHT22;8517;53.546;10.104;2023-06-04T08:23:31;24.50;99.10
11221;DHT22;8517;53.546;10.104;2023-06-04T08:25:58;24.50;98.70
11221;DHT22;8517;53.546;10.104;2023-06-04T08:28:25;24.50;98.50
11221;DHT22;8517;53.546;10.104;2023-06-04T08:30:53;24.50;97.80
11221;DHT22;8517;53.546;10.104;2023-06-04T08:33:20;24.50;98.10
11221;DHT22;8517;53.546;10.104;2023-06-04T08:35:47;24.50;97.80
11221;DHT22;8517;53.546;10.104;2023-06-04T08:38:13;24.50;97.80
11221;DHT22;8517;53.546;10.104;2023-06-04T08:40:47;24.50;97.40
11221;DHT22;8517;53.546;10.104;2023-06-04T08:43:15;24.50;96.60
11221;DHT22;8517;53.546;10.104;2023-06-04T08:45:43;24.50;97.10
11221;DHT22;8517;53.546;10.104;2023-06-04T08:48:18;24.50;95.90
11221;DHT22;8517;53.546;10.104;2023-06-04T08:50:45;24.60;95.80
11221;DHT22;8517;53.546;10.104;2023-06-04T08:53:15;24.60;96.60
11221;DHT22;8517;53.546;10.104;2023-06-04T08:55:42;24.60;96.00
11221;DHT22;8517;53.546;10.104;2023-06-04T08:58:10;24.60;96.90
11221;DHT22;8517;53.546;10.104;2023-06-04T09:00:38;24.70;95.90
11221;DHT22;8517;53.546;10.104;2023-06-04T09:03:05;24.70;96.20
11221;DHT22;8517;53.546;10.104;2023-06-04T09:05:34;24.80;97.10
11221;DHT22;8517;53.546;10.104;2023-06-04T09:08:02;24.90;96.50
11221;DHT22;8517;53.546;10.104;2023-06-04T09:10:31;25.00;95.90
11221;DHT22;8517;53.546;10.104;2023-06-04T09:13:01;25.00;94.90
11221;DHT22;8517;53.546;10.104;2023-06-04T09:15:29;25.10;94.50
11221;DHT22;8517;53.546;10.104;2023-06-04T09:17:56;25.10;94.50
11221;DHT22;8517;53.546;10.104;2023-06-04T09:20:24;25.10;94.10
11221;DHT22;8517;53.546;10.104;2023-06-04T09:22:52;25.00;92.70
11221;DHT22;8517;53.546;10.104;2023-06-04T09:25:20;24.90;93.20
11221;DHT22;8517;53.546;10.104;2023-06-04T09:27:48;24.80;93.00
11221;DHT22;8517;53.546;10.104;2023-06-04T09:30:15;24.70;93.50
11221;DHT22;8517;53.546;10.104;2023-06-04T09:32:42;24.70;93.10
11221;DHT22;8517;53.546;10.104;2023-06-04T09:35:10;24.70;93.30
11221;DHT22;8517;53.546;10.104;2023-06-04T09:37:38;24.70;93.00
11221;DHT22;8517;53.546;10.104;2023-06-04T09:40:07;24.70;93.10
11221;DHT22;8517;53.546;10.104;2023-06-04T09:42:44;24.80;92.80
11221;DHT22;8517;53.546;10.104;2023-06-04T09:45:11;24.80;92.40
11221;DHT22;8517;53.546;10.104;2023-06-04T09:47:40;24.90;92.30
11221;DHT22;8517;53.546;10.104;2023-06-04T09:50:08;24.90;91.70
11221;DHT22;8517;53.546;10.104;2023-06-04T09:52:35;25.00;90.80
11221;DHT22;8517;53.546;10.104;2023-06-04T09:55:03;25.00;90.90
11221;DHT22;8517;53.546;10.104;2023-06-04T09:57:32;25.00;90.60
11221;DHT22;8517;53.546;10.104;2023-06-04T10:00:02;25.00;89.10
11221;DHT22;8517;53.546;10.104;2023-06-04T10:02:35;24.90;87.80
11221;DHT22;8517;53.546;10.104;2023-06-04T10:05:02;24.90;86.70
11221;DHT22;8517;53.546;10.104;2023-06-04T10:07:31;24.80;88.80
11221;DHT22;8517;53.546;10.104;2023-06-04T10:10:01;24.80;87.60
11221;DHT22;8517;53.546;10.104;2023-06-04T10:12:32;25.00;87.50
11221;DHT22;8517;53.546;10.104;2023-06-04T10:15:05;25.10;90.10
11221;DHT22;8517;53.546;10.104;2023-06-04T10:17:32;25.30;90.40
11221;DHT22;8517;53.546;10.104;2023-06-04T10:20:00;25.50;89.10
11221;DHT22;8517;53.546;10.104;2023-06-04T10:22:30;25.80;87.70
11221;DHT22;8517;53.546;10.104;2023-06-04T10:24:58;26.00;87.50
11221;DHT22;8517;53.546;10.104;2023-06-04T10:27:24;26.30;86.40
11221;DHT22;8517;53.546;10.104;2023-06-04T10:29:53;26.50;87.90
11221;DHT22;8517;53.546;10.104;2023-06-04T10:37:49;27.30;83.00
11221;DHT22;8517;53.546;10.104;2023-06-04T10:40:17;27.40;82.20
11221;DHT22;8517;53.546;10.104;2023-06-04T10:42:43;27.50;79.20
11221;DHT22;8517;53.546;10.104;2023-06-04T10:45:11;27.50;80.90
11221;DHT22;8517;53.546;10.104;2023-06-04T10:47:38;27.50;80.70
11221;DHT22;8517;53.546;10.104;2023-06-04T10:50:10;27.50;81.90
11221;DHT22;8517;53.546;10.104;2023-06-04T10:52:37;27.60;80.20
11221;DHT22;8517;53.546;10.104;2023-06-04T10:55:06;27.70;80.90
11221;DHT22;8517;53.546;10.104;2023-06-04T10:57:35;27.80;78.60
11221;DHT22;8517;53.546;10.104;2023-06-04T11:00:02;27.90;78.00
11221;DHT22;8517;53.546;10.104;2023-06-04T11:02:37;27.80;77.50
11221;DHT22;8517;53.546;10.104;2023-06-04T11:05:05;27.80;77.80
11221;DHT22;8517;53.546;10.104;2023-06-04T11:07:43;27.70;75.50
11221;DHT22;8517;53.546;10.104;2023-06-04T11:10:11;27.60;75.30
11221;DHT22;8517;53.546;10.104;2023-06-04T11:12:42;27.40;73.90
11221;DHT22;8517;53.546;10.104;2023-06-04T11:15:09;27.30;73.50
11221;DHT22;8517;53.546;10.104;2023-06-04T11:17:38;27.10;74.70
11221;DHT22;8517;53.546;10.104;2023-06-04T11:20:16;27.00;73.90
11221;DHT22;8517;53.546;10.104;2023-06-04T11:22:42;26.80;74.00
11221;DHT22;8517;53.546;10.104;2023-06-04T11:25:16;26.60;73.90
11221;DHT22;8517;53.546;10.104;2023-06-04T11:27:43;26.50;74.80
11221;DHT22;8517;53.546;10.104;2023-06-04T11:30:11;26.40;75.40
11221;DHT22;8517;53.546;10.104;2023-06-04T11:32:40;26.30;74.70
11221;DHT22;8517;53.546;10.104;2023-06-04T11:35:08;26.30;71.40
11221;DHT22;8517;53.546;10.104;2023-06-04T11:37:36;26.20;73.80
11221;DHT22;8517;53.546;10.104;2023-06-04T11:40:14;26.00;74.30
11221;DHT22;8517;53.546;10.104;2023-06-04T11:42:41;26.00;73.20
11221;DHT22;8517;53.546;10.104;2023-06-04T11:45:19;25.90;74.00
11221;DHT22;8517;53.546;10.104;2023-06-04T11:47:54;25.80;72.70
11221;DHT22;8517;53.546;10.104;2023-06-04T11:50:23;25.80;73.60
11221;DHT22;8517;53.546;10.104;2023-06-04T11:52:52;25.70;73.70
11221;DHT22;8517;53.546;10.104;2023-06-04T11:55:19;25.60;74.50
11221;DHT22;8517;53.546;10.104;2023-06-04T11:57:47;25.60;73.20
11221;DHT22;8517;53.546;10.104;2023-06-04T12:00:15;25.50;71.80
11221;DHT22;8517;53.546;10.104;2023-06-04T12:02:49;25.50;72.70
11221;DHT22;8517;53.546;10.104;2023-06-04T12:05:18;25.50;73.50
11221;DHT22;8517;53.546;10.104;2023-06-04T12:07:46;25.40;73.90
11221;DHT22;8517;53.546;10.104;2023-06-04T12:10:18;25.30;73.70
11221;DHT22;8517;53.546;10.104;2023-06-04T12:12:45;25.30;74.70
11221;DHT22;8517;53.546;10.104;2023-06-04T12:15:18;25.30;74.00
11221;DHT22;8517;53.546;10.104;2023-06-04T12:17:51;25.30;73.90
11221;DHT22;8517;53.546;10.104;2023-06-04T12:20:35;25.40;73.40
11221;DHT22;8517;53.546;10.104;2023-06-04T12:23:02;25.30;73.40
11221;DHT22;8517;53.546;10.104;2023-06-04T12:25:29;25.30;74.50
11221;DHT22;8517;53.546;10.104;2023-06-04T12:27:56;25.20;74.00
11221;DHT22;8517;53.546;10.104;2023-06-04T12:30:34;25.20;73.90
11221;DHT22;8517;53.546;10.104;2023-06-04T12:33:02;25.10;74.80
11221;DHT22;8517;53.546;10.104;2023-06-04T12:35:30;25.10;74.00
11221;DHT22;8517;53.546;10.104;2023-06-04T12:37:57;25.10;73.50
11221;DHT22;8517;53.546;10.104;2023-06-04T12:40:24;25.10;73.80
11221;DHT22;8517;53.546;10.104;2023-06-04T12:42:50;25.00;73.70
11221;DHT22;8517;53.546;10.104;2023-06-04T12:45:17;25.00;74.30
11221;DHT22;8517;53.546;10.104;2023-06-04T12:47:44;25.00;73.50
11221;DHT22;8517;53.546;10.104;2023-06-04T12:50:12;24.90;73.60
11221;DHT22;8517;53.546;10.104;2023-06-04T12:52:41;24.90;75.10
11221;DHT22;8517;53.546;10.104;2023-06-04T12:55:08;24.90;75.10
11221;DHT22;8517;53.546;10.104;2023-06-04T12:57:35;24.90;75.50
11221;DHT22;8517;53.546;10.104;2023-06-04T13:00:02;24.90;75.50
11221;DHT22;8517;53.546;10.104;2023-06-04T13:02:30;25.00;74.80
11221;DHT22;8517;53.546;10.104;2023-06-04T13:04:57;25.00;74.50
11221;DHT22;8517;53.546;10.104;2023-06-04T13:07:23;25.00;75.00
11221;DHT22;8517;53.546;10.104;2023-06-04T13:09:51;25.00;75.00
11221;DHT22;8517;53.546;10.104;2023-06-04T13:12:18;25.00;74.50
11221;DHT22;8517;53.546;10.104;2023-06-04T13:14:45;25.00;75.40
11221;DHT22;8517;53.546;10.104;2023-06-04T13:17:12;25.00;76.10
11221;DHT22;8517;53.546;10.104;2023-06-04T13:19:39;25.10;75.80
11221;DHT22;8517;53.546;10.104;2023-06-04T13:22:05;25.10;75.80
11221;DHT22;8517;53.546;10.104;2023-06-04T13:24:34;25.20;75.50
11221;DHT22;8517;53.546;10.104;2023-06-04T13:27:03;25.20;75.90
11221;DHT22;8517;53.546;10.104;2023-06-04T13:29:30;25.20;75.20
11221;DHT22;8517;53.546;10.104;2023-06-04T13:31:59;25.30;75.80
11221;DHT22;8517;53.546;10.104;2023-06-04T13:34:25;25.30;75.40
11221;DHT22;8517;53.546;10.104;2023-06-04T13:36:52;25.30;74.30
11221;DHT22;8517;53.546;10.104;2023-06-04T13:39:19;25.30;74.90
11221;DHT22;8517;53.546;10.104;2023-06-04T13:41:46;25.40;75.40
11221;DHT22;8517;53.546;10.104;2023-06-04T13:44:14;25.40;74.90
11221;DHT22;8517;53.546;10.104;2023-06-04T13:46:41;25.50;74.60
11221;DHT22;8517;53.546;10.104;2023-06-04T13:49:08;25.50;74.30
11221;DHT22;8517;53.546;10.104;2023-06-04T13:51:35;25.50;73.90
11221;DHT22;8517;53.546;10.104;2023-06-04T13:54:02;25.60;74.30
11221;DHT22;8517;53.546;10.104;2023-06-04T13:56:28;25.60;74.20
11221;DHT22;8517;53.546;10.104;2023-06-04T13:58:55;25.60;75.60
11221;DHT22;8517;53.546;10.104;2023-06-04T14:01:23;25.60;73.90
11221;DHT22;8517;53.546;10.104;2023-06-04T14:03:50;25.70;75.10
11221;DHT22;8517;53.546;10.104;2023-06-04T14:06:17;25.70;74.60
11221;DHT22;8517;53.546;10.104;2023-06-04T14:08:44;25.70;74.30
11221;DHT22;8517;53.546;10.104;2023-06-04T14:11:11;25.70;74.00
11221;DHT22;8517;53.546;10.104;2023-06-04T14:13:38;25.70;74.20
11221;DHT22;8517;53.546;10.104;2023-06-04T14:16:06;25.70;74.40
11221;DHT22;8517;53.546;10.104;2023-06-04T14:18:34;25.70;73.00
11221;DHT22;8517;53.546;10.104;2023-06-04T14:21:01;25.70;74.00
11221;DHT22;8517;53.546;10.104;2023-06-04T14:23:28;25.70;73.80
11221;DHT22;8517;53.546;10.104;2023-06-04T14:25:55;25.60;73.90
11221;DHT22;8517;53.546;10.104;2023-06-04T14:28:21;25.60;74.70
11221;DHT22;8517;53.546;10.104;2023-06-04T14:30:48;25.60;75.10
11221;DHT22;8517;53.546;10.104;2023-06-04T14:33:16;25.60;75.40
11221;DHT22;8517;53.546;10.104;2023-06-04T14:35:44;25.70;76.00
11221;DHT22;8517;53.546;10.104;2023-06-04T14:38:12;25.70;75.90
11221;DHT22;8517;53.546;10.104;2023-06-04T14:40:45;25.70;75.20
11221;DHT22;8517;53.546;10.104;2023-06-04T14:43:12;25.70;75.70
11221;DHT22;8517;53.546;10.104;2023-06-04T14:45:39;25.70;75.70
11221;DHT22;8517;53.546;10.104;2023-06-04T14:48:07;25.80;76.20
11221;DHT22;8517;53.546;10.104;2023-06-04T14:50:34;25.80;76.20
11221;DHT22;8517;53.546;10.104;2023-06-04T14:53:02;25.80;76.00
11221;DHT22;8517;53.546;10.104;2023-06-04T14:55:32;25.80;76.10
11221;DHT22;8517;53.546;10.104;2023-06-04T14:57:59;25.80;76.20
11221;DHT22;8517;53.546;10.104;2023-06-04T15:00:26;25.80;75.40
11221;DHT22;8517;53.546;10.104;2023-06-04T15:02:53;25.70;75.70
11221;DHT22;8517;53.546;10.104;2023-06-04T15:05:19;25.70;76.50
11221;DHT22;8517;53.546;10.104;2023-06-04T15:07:46;25.70;76.70
11221;DHT22;8517;53.546;10.104;2023-06-04T15:10:14;25.70;75.80
11221;DHT22;8517;53.546;10.104;2023-06-04T15:12:41;25.70;75.90
11221;DHT22;8517;53.546;10.104;2023-06-04T15:15:09;25.70;76.00
11221;DHT22;8517;53.546;10.104;2023-06-04T15:17:36;25.70;75.70
11221;DHT22;8517;53.546;10.104;2023-06-04T15:20:04;25.70;75.30
11221;DHT22;8517;53.546;10.104;2023-06-04T15:22:31;25.70;75.70
11221;DHT22;8517;53.546;10.104;2023-06-04T15:25:01;25.70;75.30
11221;DHT22;8517;53.546;10.104;2023-06-04T15:27:29;25.70;75.40
11221;DHT22;8517;53.546;10.104;2023-06-04T15:29:56;25.70;75.70
11221;DHT22;8517;53.546;10.104;2023-06-04T15:32:23;25.70;76.00
11221;DHT22;8517;53.546;10.104;2023-06-04T15:34:50;25.70;74.80
11221;DHT22;8517;53.546;10.104;2023-06-04T15:37:20;25.70;75.20
11221;DHT22;8517;53.546;10.104;2023-06-04T15:39:46;25.70;75.50